sensor_id;sensor_type;location;lat;lon;timestamp;pressure;altitude;pressure_sealevel;temperature;humidity
10462;BME280;5278;42.656;23.374;2022-10-16T00:00:47;95278.91;;;12.05;82.81
10462;BME280;5278;42.656;23.374;2022-10-16T00:03:13;95288.00;;;12.01;83.20
10462;BME280;5278;42.656;23.374;2022-10-16T00:05:42;95284.91;;;11.97;83.37
10462;BME280;5278;42.656;23.374;2022-10-16T00:08:11;95285.94;;;11.88;83.36
10462;BME280;5278;42.656;23.374;2022-10-16T00:10:38;95287.22;;;11.92;83.58
10462;BME280;5278;42.656;23.374;2022-10-16T00:13:05;95255.00;;;11.61;83.58
10462;BME280;5278;42.656;23.374;2022-10-16T00:15:33;95289.66;;;11.86;83.59
10462;BME280;5278;42.656;23.374;2022-10-16T00:18:03;95290.47;;;11.86;83.91
10462;BME280;5278;42.656;23.374;2022-10-16T00:20:33;95293.41;;;11.83;83.77
10462;BME280;5278;42.656;23.374;2022-10-16T00:23:02;95288.56;;;11.80;83.40
10462;BME280;5278;42.656;23.374;2022-10-16T00:25:29;95294.41;;;11.74;83.79
10462;BME280;5278;42.656;23.374;2022-10-16T00:27:58;95289.66;;;11.70;83.64
10462;BME280;5278;42.656;23.374;2022-10-16T00:30:24;95296.66;;;11.69;84.13
10462;BME280;5278;42.656;23.374;2022-10-16T00:32:53;95305.44;;;11.68;83.58
10462;BME280;5278;42.656;23.374;2022-10-16T00:35:21;95314.56;;;11.64;83.48
10462;BME280;5278;42.656;23.374;2022-10-16T00:37:48;95314.09;;;11.60;83.71
10462;BME280;5278;42.656;23.374;2022-10-16T00:40:15;95309.66;;;11.61;82.93
10462;BME280;5278;42.656;23.374;2022-10-16T00:42:42;95313.91;;;11.62;83.33
10462;BME280;5278;42.656;23.374;2022-10-16T00:45:09;95307.25;;;11.59;83.41
10462;BME280;5278;42.656;23.374;2022-10-16T00:47:39;95305.44;;;11.52;83.52
10462;BME280;5278;42.656;23.374;2022-10-16T00:50:11;95304.63;;;11.51;83.39
10462;BME280;5278;42.656;23.374;2022-10-16T00:52:44;95308.38;;;11.41;83.98
10462;BME280;5278;42.656;23.374;2022-10-16T00:55:12;95305.94;;;11.39;83.56
10462;BME280;5278;42.656;23.374;2022-10-16T00:57:40;95290.66;;;11.28;83.55
10462;BME280;5278;42.656;23.374;2022-10-16T01:00:10;95312.59;;;11.34;83.49
10462;BME280;5278;42.656;23.374;2022-10-16T01:02:37;95312.28;;;11.29;84.09
10462;BME280;5278;42.656;23.374;2022-10-16T01:05:05;95309.84;;;11.19;84.26
10462;BME280;5278;42.656;23.374;2022-10-16T01:07:39;95319.91;;;11.22;84.86
10462;BME280;5278;42.656;23.374;2022-10-16T01:10:16;95308.84;;;10.96;85.39
10462;BME280;5278;42.656;23.374;2022-10-16T01:12:47;95323.28;;;11.06;85.82
10462;BME280;5278;42.656;23.374;2022-10-16T01:15:21;95322.16;;;11.09;85.97
10462;BME280;5278;42.656;23.374;2022-10-16T01:17:55;95319.41;;;11.10;85.95
10462;BME280;5278;42.656;23.374;2022-10-16T01:20:27;95318.13;;;11.14;86.12
10462;BME280;5278;42.656;23.374;2022-10-16T01:23:02;95309.34;;;11.15;86.25
10462;BME280;5278;42.656;23.374;2022-10-16T01:25:44;95307.38;;;11.17;86.58
10462;BME280;5278;42.656;23.374;2022-10-16T01:28:17;95203.50;;;10.59;86.21
10462;BME280;5278;42.656;23.374;2022-10-16T01:30:48;95296.69;;;11.20;86.67
10462;BME280;5278;42.656;23.374;2022-10-16T01:33:21;95298.13;;;11.15;86.18
10462;BME280;5278;42.656;23.374;2022-10-16T01:35:53;95298.75;;;11.17;85.72
10462;BME280;5278;42.656;23.374;2022-10-16T01:38:25;95301.38;;;11.09;84.98
10462;BME280;5278;42.656;23.374;2022-10-16T01:40:57;95301.03;;;11.04;84.57
10462;BME280;5278;42.656;23.374;2022-10-16T01:43:31;95299.72;;;11.00;84.52
10462;BME280;5278;42.656;23.374;2022-10-16T01:46:00;95299.56;;;11.01;83.79
10462;BME280;5278;42.656;23.374;2022-10-16T01:48:29;95302.28;;;10.92;83.62
10462;BME280;5278;42.656;23.374;2022-10-16T01:51:00;95312.69;;;10.92;83.66
10462;BME280;5278;42.656;23.374;2022-10-16T01:53:28;95313.84;;;10.89;83.20
10462;BME280;5278;42.656;23.374;2022-10-16T01:55:57;95320.00;;;10.88;83.31
10462;BME280;5278;42.656;23.374;2022-10-16T01:58:25;95318.06;;;10.90;83.29
10462;BME280;5278;42.656;23.374;2022-10-16T02:00:57;95305.91;;;10.91;82.75
10462;BME280;5278;42.656;23.374;2022-10-16T02:03:24;95316.44;;;10.89;82.20
10462;BME280;5278;42.656;23.374;2022-10-16T02:05:52;95318.38;;;10.87;82.96
10462;BME280;5278;42.656;23.374;2022-10-16T02:08:21;95324.53;;;10.86;81.85
10462;BME280;5278;42.656;23.374;2022-10-16T02:10:49;95325.53;;;10.85;81.80
10462;BME280;5278;42.656;23.374;2022-10-16T02:13:20;95299.16;;;10.72;81.84
10462;BME280;5278;42.656;23.374;2022-10-16T02:15:48;95330.06;;;10.83;82.37
10462;BME280;5278;42.656;23.374;2022-10-16T02:18:16;95335.59;;;10.80;82.07
10462;BME280;5278;42.656;23.374;2022-10-16T02:20:48;95331.66;;;10.76;82.10
10462;BME280;5278;42.656;23.374;2022-10-16T02:23:20;95334.59;;;10.73;82.36
10462;BME280;5278;42.656;23.374;2022-10-16T02:25:50;95344.16;;;10.64;83.31
10462;BME280;5278;42.656;23.374;2022-10-16T02:28:23;95332.91;;;10.56;83.62
10462;BME280;5278;42.656;23.374;2022-10-16T02:30:54;95339.25;;;10.61;83.62
10462;BME280;5278;42.656;23.374;2022-10-16T02:33:26;95349.81;;;10.60;84.03
10462;BME280;5278;42.656;23.374;2022-10-16T02:35:54;95342.78;;;10.52;83.95
10462;BME280;5278;42.656;23.374;2022-10-16T02:38:22;95343.94;;;10.50;83.97
10462;BME280;5278;42.656;23.374;2022-10-16T02:40:51;95340.16;;;10.44;84.30
10462;BME280;5278;42.656;23.374;2022-10-16T02:43:19;95345.22;;;10.46;83.98
10462;BME280;5278;42.656;23.374;2022-10-16T02:45:46;95340.31;;;10.43;84.14
10462;BME280;5278;42.656;23.374;2022-10-16T02:48:13;95349.38;;;10.39;84.23
10462;BME280;5278;42.656;23.374;2022-10-16T02:50:41;95340.63;;;10.40;83.85
10462;BME280;5278;42.656;23.374;2022-10-16T02:53:08;95316.69;;;10.02;84.38
10462;BME280;5278;42.656;23.374;2022-10-16T02:55:35;95360.56;;;10.31;84.53
10462;BME280;5278;42.656;23.374;2022-10-16T02:58:01;95360.84;;;10.28;84.18
10462;BME280;5278;42.656;23.374;2022-10-16T03:00:28;95362.09;;;10.16;84.69
10462;BME280;5278;42.656;23.374;2022-10-16T03:02:55;95366.59;;;10.14;85.06
10462;BME280;5278;42.656;23.374;2022-10-16T03:05:22;95367.28;;;10.16;85.22
10462;BME280;5278;42.656;23.374;2022-10-16T03:07:50;95329.25;;;9.81;84.97
10462;BME280;5278;42.656;23.374;2022-10-16T03:10:18;95355.50;;;10.04;85.21
10462;BME280;5278;42.656;23.374;2022-10-16T03:12:44;95368.16;;;10.07;85.32
10462;BME280;5278;42.656;23.374;2022-10-16T03:15:11;95364.91;;;10.05;85.93
10462;BME280;5278;42.656;23.374;2022-10-16T03:17:38;95367.28;;;9.98;86.32
10462;BME280;5278;42.656;23.374;2022-10-16T03:20:06;95377.91;;;9.87;87.23
10462;BME280;5278;42.656;23.374;2022-10-16T03:22:32;95377.56;;;9.82;87.70
10462;BME280;5278;42.656;23.374;2022-10-16T03:25:01;95375.94;;;9.81;88.28
10462;BME280;5278;42.656;23.374;2022-10-16T03:27:28;95378.78;;;9.70;88.74
10462;BME280;5278;42.656;23.374;2022-10-16T03:29:55;95387.19;;;9.72;89.14
10462;BME280;5278;42.656;23.374;2022-10-16T03:32:22;95376.19;;;9.70;89.18
10462;BME280;5278;42.656;23.374;2022-10-16T03:34:50;95380.03;;;9.66;89.83
10462;BME280;5278;42.656;23.374;2022-10-16T03:37:18;95384.41;;;9.65;89.65
10462;BME280;5278;42.656;23.374;2022-10-16T03:39:45;95385.75;;;9.69;89.54
10462;BME280;5278;42.656;23.374;2022-10-16T03:42:13;95372.50;;;9.55;89.70
10462;BME280;5278;42.656;23.374;2022-10-16T03:44:42;95378.50;;;9.55;90.23
10462;BME280;5278;42.656;23.374;2022-10-16T03:47:20;95375.44;;;9.60;89.67
10462;BME280;5278;42.656;23.374;2022-10-16T03:49:49;95372.84;;;9.60;89.56
10462;BME280;5278;42.656;23.374;2022-10-16T03:52:15;95377.38;;;9.58;89.21
10462;BME280;5278;42.656;23.374;2022-10-16T03:54:42;95382.56;;;9.58;89.22
10462;BME280;5278;42.656;23.374;2022-10-16T03:57:09;95373.00;;;9.58;89.57
10462;BME280;5278;42.656;23.374;2022-10-16T03:59:37;95357.44;;;9.58;88.88
10462;BME280;5278;42.656;23.374;2022-10-16T04:02:04;95371.00;;;9.70;88.89
10462;BME280;5278;42.656;23.374;2022-10-16T04:04:31;95365.28;;;9.66;88.16
10462;BME280;5278;42.656;23.374;2022-10-16T04:06:58;95371.59;;;9.64;88.55
10462;BME280;5278;42.656;23.374;2022-10-16T04:09:25;95373.69;;;9.60;88.61
10462;BME280;5278;42.656;23.374;2022-10-16T04:11:52;95375.13;;;9.63;88.81
10462;BME280;5278;42.656;23.374;2022-10-16T04:14:18;95375.69;;;9.66;88.82
10462;BME280;5278;42.656;23.374;2022-10-16T04:16:47;95376.63;;;9.65;88.79
10462;BME280;5278;42.656;23.374;2022-10-16T04:19:14;95375.81;;;9.65;88.69
10462;BME280;5278;42.656;23.374;2022-10-16T04:21:40;95376.78;;;9.64;88.67
10462;BME280;5278;42.656;23.374;2022-10-16T04:24:07;95380.03;;;9.66;89.01
10462;BME280;5278;42.656;23.374;2022-10-16T04:26:35;95384.25;;;9.67;89.00
10462;BME280;5278;42.656;23.374;2022-10-16T04:29:02;95377.81;;;9.71;88.49
10462;BME280;5278;42.656;23.374;2022-10-16T04:31:29;95381.88;;;9.73;88.25
10462;BME280;5278;42.656;23.374;2022-10-16T04:33:58;95371.28;;;9.67;87.69
10462;BME280;5278;42.656;23.374;2022-10-16T04:36:25;95388.19;;;9.71;87.66
10462;BME280;5278;42.656;23.374;2022-10-16T04:38:52;95403.44;;;9.74;87.35
10462;BME280;5278;42.656;23.374;2022-10-16T04:41:19;95390.63;;;9.72;87.45
10462;BME280;5278;42.656;23.374;2022-10-16T04:43:46;95395.81;;;9.72;86.90
10462;BME280;5278;42.656;23.374;2022-10-16T04:46:13;95392.25;;;9.73;86.64
10462;BME280;5278;42.656;23.374;2022-10-16T04:48:39;95393.38;;;9.71;87.10
10462;BME280;5278;42.656;23.374;2022-10-16T04:51:07;95395.31;;;9.69;87.14
10462;BME280;5278;42.656;23.374;2022-10-16T04:53:34;95404.63;;;9.79;86.85
10462;BME280;5278;42.656;23.374;2022-10-16T04:56:02;95411.41;;;9.98;86.46
10462;BME280;5278;42.656;23.374;2022-10-16T04:58:28;95401.41;;;10.21;86.51
10462;BME280;5278;42.656;23.374;2022-10-16T05:00:55;95404.41;;;10.34;85.74
10462;BME280;5278;42.656;23.374;2022-10-16T05:03:22;95408.25;;;10.56;84.74
10462;BME280;5278;42.656;23.374;2022-10-16T05:05:49;95412.31;;;10.92;84.00
10462;BME280;5278;42.656;23.374;2022-10-16T05:08:17;95414.06;;;11.26;83.01
10462;BME280;5278;42.656;23.374;2022-10-16T05:10:44;95421.91;;;11.58;80.75
10462;BME280;5278;42.656;23.374;2022-10-16T05:13:12;95422.44;;;12.02;78.19
10462;BME280;5278;42.656;23.374;2022-10-16T05:15:38;95425.53;;;12.38;76.27
10462;BME280;5278;42.656;23.374;2022-10-16T05:18:05;95420.41;;;12.69;74.52
10462;BME280;5278;42.656;23.374;2022-10-16T05:20:32;95413.63;;;12.90;72.58
10462;BME280;5278;42.656;23.374;2022-10-16T05:22:59;95428.75;;;13.42;71.59
10462;BME280;5278;42.656;23.374;2022-10-16T05:25:28;95429.78;;;13.87;69.57
10462;BME280;5278;42.656;23.374;2022-10-16T05:27:55;95437.31;;;14.27;66.48
10462;BME280;5278;42.656;23.374;2022-10-16T05:30:21;95429.38;;;14.73;64.75
10462;BME280;5278;42.656;23.374;2022-10-16T05:32:49;95421.41;;;15.25;62.71
10462;BME280;5278;42.656;23.374;2022-10-16T05:35:17;95417.66;;;15.63;60.98
10462;BME280;5278;42.656;23.374;2022-10-16T05:37:44;95423.13;;;15.89;58.20
10462;BME280;5278;42.656;23.374;2022-10-16T05:40:12;95420.41;;;15.98;56.84
10462;BME280;5278;42.656;23.374;2022-10-16T05:42:40;95420.28;;;16.06;56.17
10462;BME280;5278;42.656;23.374;2022-10-16T05:45:09;95420.44;;;16.04;55.66
10462;BME280;5278;42.656;23.374;2022-10-16T05:47:37;95426.06;;;15.80;56.67
10462;BME280;5278;42.656;23.374;2022-10-16T05:50:04;95431.78;;;15.83;56.47
10462;BME280;5278;42.656;23.374;2022-10-16T05:52:31;95431.13;;;15.81;56.36
10462;BME280;5278;42.656;23.374;2022-10-16T05:54:58;95436.16;;;15.62;57.17
10462;BME280;5278;42.656;23.374;2022-10-16T05:57:25;95436.38;;;15.81;56.74
10462;BME280;5278;42.656;23.374;2022-10-16T05:59:53;95437.56;;;16.21;55.64
10462;BME280;5278;42.656;23.374;2022-10-16T06:02:20;95445.09;;;16.52;54.43
10462;BME280;5278;42.656;23.374;2022-10-16T06:04:46;95447.31;;;16.76;53.33
10462;BME280;5278;42.656;23.374;2022-10-16T06:07:13;95449.41;;;16.94;53.06
10462;BME280;5278;42.656;23.374;2022-10-16T06:09:40;95448.81;;;17.27;51.83
10462;BME280;5278;42.656;23.374;2022-10-16T06:12:06;95454.41;;;17.58;51.47
10462;BME280;5278;42.656;23.374;2022-10-16T06:14:33;95438.94;;;17.89;49.89
10462;BME280;5278;42.656;23.374;2022-10-16T06:17:01;95449.91;;;18.39;48.20
10462;BME280;5278;42.656;23.374;2022-10-16T06:19:28;95454.97;;;18.34;47.96
10462;BME280;5278;42.656;23.374;2022-10-16T06:21:56;95454.78;;;18.35;47.97
10462;BME280;5278;42.656;23.374;2022-10-16T06:24:24;95456.22;;;18.71;47.53
10462;BME280;5278;42.656;23.374;2022-10-16T06:26:52;95459.94;;;19.34;45.61
10462;BME280;5278;42.656;23.374;2022-10-16T06:29:19;95456.06;;;19.43;44.98
10462;BME280;5278;42.656;23.374;2022-10-16T06:31:45;95466.84;;;19.35;45.42
10462;BME280;5278;42.656;23.374;2022-10-16T06:34:14;95463.34;;;19.54;44.71
10462;BME280;5278;42.656;23.374;2022-10-16T06:36:40;95462.25;;;19.82;43.92
10462;BME280;5278;42.656;23.374;2022-10-16T06:39:08;95468.03;;;20.35;42.97
10462;BME280;5278;42.656;23.374;2022-10-16T06:41:35;95472.50;;;20.84;41.75
10462;BME280;5278;42.656;23.374;2022-10-16T06:44:05;95471.94;;;21.43;40.46
10462;BME280;5278;42.656;23.374;2022-10-16T06:46:32;95466.59;;;22.16;39.41
10462;BME280;5278;42.656;23.374;2022-10-16T06:48:58;95464.56;;;22.71;37.99
10462;BME280;5278;42.656;23.374;2022-10-16T06:51:27;95470.56;;;23.01;36.85
10462;BME280;5278;42.656;23.374;2022-10-16T06:53:55;95433.00;;;22.81;36.92
10462;BME280;5278;42.656;23.374;2022-10-16T06:56:25;95477.03;;;23.29;36.83
10462;BME280;5278;42.656;23.374;2022-10-16T06:58:52;95474.00;;;24.00;35.25
10462;BME280;5278;42.656;23.374;2022-10-16T07:01:22;95481.06;;;24.51;34.54
10462;BME280;5278;42.656;23.374;2022-10-16T07:03:50;95476.50;;;24.97;33.80
10462;BME280;5278;42.656;23.374;2022-10-16T07:06:18;95474.25;;;25.60;32.38
10462;BME280;5278;42.656;23.374;2022-10-16T07:08:47;95484.75;;;26.15;31.52
10462;BME280;5278;42.656;23.374;2022-10-16T07:11:15;95477.88;;;26.41;31.15
10462;BME280;5278;42.656;23.374;2022-10-16T07:13:43;95475.19;;;26.68;30.22
10462;BME280;5278;42.656;23.374;2022-10-16T07:16:12;95473.63;;;27.04;29.72
10462;BME280;5278;42.656;23.374;2022-10-16T07:18:40;95484.63;;;27.13;29.70
10462;BME280;5278;42.656;23.374;2022-10-16T07:21:11;95482.81;;;27.60;29.42
10462;BME280;5278;42.656;23.374;2022-10-16T07:23:38;95479.88;;;28.19;28.48
10462;BME280;5278;42.656;23.374;2022-10-16T07:26:09;95484.00;;;28.72;27.50
10462;BME280;5278;42.656;23.374;2022-10-16T07:28:37;95486.94;;;28.91;26.87
10462;BME280;5278;42.656;23.374;2022-10-16T07:31:06;95479.47;;;29.33;26.99
10462;BME280;5278;42.656;23.374;2022-10-16T07:33:36;95452.25;;;29.75;26.31
10462;BME280;5278;42.656;23.374;2022-10-16T07:36:04;95489.53;;;30.46;25.22
10462;BME280;5278;42.656;23.374;2022-10-16T07:38:32;95479.66;;;30.31;25.70
10462;BME280;5278;42.656;23.374;2022-10-16T07:41:00;95498.47;;;30.70;24.94
10462;BME280;5278;42.656;23.374;2022-10-16T07:43:29;95484.06;;;31.29;24.25
10462;BME280;5278;42.656;23.374;2022-10-16T07:45:56;95486.78;;;31.58;23.83
10462;BME280;5278;42.656;23.374;2022-10-16T07:48:24;95484.09;;;31.82;23.74
10462;BME280;5278;42.656;23.374;2022-10-16T07:50:57;95477.66;;;32.01;23.09
10462;BME280;5278;42.656;23.374;2022-10-16T07:53:24;95483.72;;;31.65;23.32
10462;BME280;5278;42.656;23.374;2022-10-16T07:55:50;95493.19;;;31.62;23.34
10462;BME280;5278;42.656;23.374;2022-10-16T07:58:17;95479.56;;;31.77;23.50
10462;BME280;5278;42.656;23.374;2022-10-16T08:00:46;95491.31;;;32.29;23.19
10462;BME280;5278;42.656;23.374;2022-10-16T08:03:12;95490.69;;;32.13;23.05
10462;BME280;5278;42.656;23.374;2022-10-16T08:05:39;95480.56;;;32.47;22.96
10462;BME280;5278;42.656;23.374;2022-10-16T08:08:06;95489.47;;;33.18;22.24
10462;BME280;5278;42.656;23.374;2022-10-16T08:10:33;95498.84;;;33.53;21.86
10462;BME280;5278;42.656;23.374;2022-10-16T08:13:00;95489.91;;;33.71;21.39
10462;BME280;5278;42.656;23.374;2022-10-16T08:15:27;95489.50;;;34.19;21.06
10462;BME280;5278;42.656;23.374;2022-10-16T08:17:57;95490.13;;;34.65;20.87
10462;BME280;5278;42.656;23.374;2022-10-16T08:20:24;95492.63;;;34.75;20.47
10462;BME280;5278;42.656;23.374;2022-10-16T08:22:51;95481.84;;;35.20;19.70
10462;BME280;5278;42.656;23.374;2022-10-16T08:25:19;95485.69;;;35.05;19.83
10462;BME280;5278;42.656;23.374;2022-10-16T08:27:46;95481.88;;;34.84;23.05
10462;BME280;5278;42.656;23.374;2022-10-16T08:30:14;95478.44;;;34.92;20.81
10462;BME280;5278;42.656;23.374;2022-10-16T08:32:41;95480.09;;;35.24;21.92
10462;BME280;5278;42.656;23.374;2022-10-16T08:35:11;95472.75;;;35.77;22.50
10462;BME280;5278;42.656;23.374;2022-10-16T08:37:38;95473.25;;;35.79;21.53
10462;BME280;5278;42.656;23.374;2022-10-16T08:40:07;95476.94;;;35.92;19.34
10462;BME280;5278;42.656;23.374;2022-10-16T08:42:47;95472.47;;;36.44;19.94
10462;BME280;5278;42.656;23.374;2022-10-16T08:48:17;95483.66;;;36.51;20.34
10462;BME280;5278;42.656;23.374;2022-10-16T08:50:49;95479.34;;;36.50;19.34
10462;BME280;5278;42.656;23.374;2022-10-16T08:53:20;95483.34;;;37.04;18.48
10462;BME280;5278;42.656;23.374;2022-10-16T08:55:50;95484.13;;;37.05;17.45
10462;BME280;5278;42.656;23.374;2022-10-16T08:58:19;95486.22;;;36.65;18.57
10462;BME280;5278;42.656;23.374;2022-10-16T09:00:49;95488.25;;;36.59;17.78
10462;BME280;5278;42.656;23.374;2022-10-16T09:03:33;95489.53;;;36.53;18.36
10462;BME280;5278;42.656;23.374;2022-10-16T09:06:12;95467.84;;;36.45;18.38
10462;BME280;5278;42.656;23.374;2022-10-16T09:08:56;95486.53;;;36.72;18.54
10462;BME280;5278;42.656;23.374;2022-10-16T09:11:36;95482.09;;;36.11;19.63
10462;BME280;5278;42.656;23.374;2022-10-16T09:14:17;95486.13;;;35.82;18.68
10462;BME280;5278;42.656;23.374;2022-10-16T09:16:52;95482.94;;;36.20;18.65
10462;BME280;5278;42.656;23.374;2022-10-16T09:19:27;95480.75;;;36.39;18.40
10462;BME280;5278;42.656;23.374;2022-10-16T09:21:59;95474.19;;;35.53;19.29
10462;BME280;5278;42.656;23.374;2022-10-16T09:24:29;95484.22;;;35.52;18.44
10462;BME280;5278;42.656;23.374;2022-10-16T09:26:56;95491.38;;;35.04;19.00
10462;BME280;5278;42.656;23.374;2022-10-16T09:29:23;95485.09;;;34.72;19.18
10462;BME280;5278;42.656;23.374;2022-10-16T09:31:50;95487.81;;;34.72;18.49
10462;BME280;5278;42.656;23.374;2022-10-16T09:34:29;95482.19;;;33.78;19.31
10462;BME280;5278;42.656;23.374;2022-10-16T09:36:59;95484.31;;;33.67;19.57
10462;BME280;5278;42.656;23.374;2022-10-16T09:39:26;95482.59;;;34.40;19.12
10462;BME280;5278;42.656;23.374;2022-10-16T09:41:55;95479.66;;;34.50;18.20
10462;BME280;5278;42.656;23.374;2022-10-16T09:44:24;95477.00;;;34.09;18.92
10462;BME280;5278;42.656;23.374;2022-10-16T09:47:03;95450.50;;;34.25;18.29
10462;BME280;5278;42.656;23.374;2022-10-16T09:49:32;95468.31;;;33.98;19.00
10462;BME280;5278;42.656;23.374;2022-10-16T09:52:05;95470.13;;;34.52;18.31
10462;BME280;5278;42.656;23.374;2022-10-16T09:54:32;95463.50;;;34.94;18.10
10462;BME280;5278;42.656;23.374;2022-10-16T09:57:05;95455.78;;;35.02;17.78
10462;BME280;5278;42.656;23.374;2022-10-16T09:59:33;95466.31;;;35.34;18.64
10462;BME280;5278;42.656;23.374;2022-10-16T10:02:03;95464.81;;;35.81;18.40
10462;BME280;5278;42.656;23.374;2022-10-16T10:04:38;95459.16;;;36.08;18.33
10462;BME280;5278;42.656;23.374;2022-10-16T10:07:17;95451.91;;;36.26;19.37
10462;BME280;5278;42.656;23.374;2022-10-16T10:09:45;95453.63;;;36.22;19.12
10462;BME280;5278;42.656;23.374;2022-10-16T10:12:18;95451.72;;;36.14;18.00
10462;BME280;5278;42.656;23.374;2022-10-16T10:14:47;95428.78;;;36.29;17.90
10462;BME280;5278;42.656;23.374;2022-10-16T10:17:16;95453.34;;;36.49;17.48
10462;BME280;5278;42.656;23.374;2022-10-16T10:19:51;95442.50;;;37.01;17.14
10462;BME280;5278;42.656;23.374;2022-10-16T10:22:31;95442.50;;;37.01;16.61
10462;BME280;5278;42.656;23.374;2022-10-16T10:25:19;95445.53;;;37.25;16.58
10462;BME280;5278;42.656;23.374;2022-10-16T10:27:59;95443.44;;;37.22;16.32
10462;BME280;5278;42.656;23.374;2022-10-16T10:30:36;95441.56;;;37.69;15.94
10462;BME280;5278;42.656;23.374;2022-10-16T10:33:14;95438.56;;;37.91;15.10
10462;BME280;5278;42.656;23.374;2022-10-16T10:35:51;95430.09;;;37.93;15.75
10462;BME280;5278;42.656;23.374;2022-10-16T10:38:30;95430.28;;;37.88;15.91
10462;BME280;5278;42.656;23.374;2022-10-16T10:41:08;95434.19;;;38.08;15.62
10462;BME280;5278;42.656;23.374;2022-10-16T10:43:51;95429.09;;;37.98;16.67
10462;BME280;5278;42.656;23.374;2022-10-16T10:46:28;95425.19;;;38.16;15.11
10462;BME280;5278;42.656;23.374;2022-10-16T10:49:09;95416.50;;;38.22;16.13
10462;BME280;5278;42.656;23.374;2022-10-16T10:51:44;95423.59;;;38.15;15.07
10462;BME280;5278;42.656;23.374;2022-10-16T10:54:22;95414.91;;;38.21;15.17
10462;BME280;5278;42.656;23.374;2022-10-16T10:56:57;95424.22;;;37.82;15.18
10462;BME280;5278;42.656;23.374;2022-10-16T11:02:32;95416.19;;;37.65;14.90
10462;BME280;5278;42.656;23.374;2022-10-16T11:05:41;95414.63;;;37.56;15.18
10462;BME280;5278;42.656;23.374;2022-10-16T11:08:14;95406.88;;;37.28;16.03
10462;BME280;5278;42.656;23.374;2022-10-16T11:10:58;95391.00;;;37.01;13.90
10462;BME280;5278;42.656;23.374;2022-10-16T11:13:31;95399.38;;;35.88;16.08
10462;BME280;5278;42.656;23.374;2022-10-16T11:16:03;95402.72;;;35.45;16.46
10462;BME280;5278;42.656;23.374;2022-10-16T11:18:44;95404.94;;;35.43;17.51
10462;BME280;5278;42.656;23.374;2022-10-16T11:21:18;95396.81;;;34.81;17.61
10462;BME280;5278;42.656;23.374;2022-10-16T11:23:50;95393.63;;;34.79;17.39
10462;BME280;5278;42.656;23.374;2022-10-16T11:26:21;95403.31;;;34.08;18.25
10462;BME280;5278;42.656;23.374;2022-10-16T11:28:51;95400.47;;;34.41;17.94
10462;BME280;5278;42.656;23.374;2022-10-16T11:31:24;95390.69;;;34.31;17.32
10462;BME280;5278;42.656;23.374;2022-10-16T11:33:59;95389.22;;;34.25;19.18
10462;BME280;5278;42.656;23.374;2022-10-16T11:36:34;95388.91;;;34.49;18.91
10462;BME280;5278;42.656;23.374;2022-10-16T11:39:11;95387.25;;;34.39;16.71
10462;BME280;5278;42.656;23.374;2022-10-16T11:41:48;95391.31;;;34.14;18.52
10462;BME280;5278;42.656;23.374;2022-10-16T11:44:35;95409.03;;;33.25;18.73
10462;BME280;5278;42.656;23.374;2022-10-16T11:47:12;95398.03;;;32.57;19.92
10462;BME280;5278;42.656;23.374;2022-10-16T11:49:44;95394.72;;;32.46;20.51
10462;BME280;5278;42.656;23.374;2022-10-16T11:52:17;95382.88;;;31.67;21.42
10462;BME280;5278;42.656;23.374;2022-10-16T11:54:50;95407.25;;;31.94;20.99
10462;BME280;5278;42.656;23.374;2022-10-16T11:57:23;95398.31;;;31.80;21.00
10462;BME280;5278;42.656;23.374;2022-10-16T11:59:53;95398.63;;;31.02;22.01
10462;BME280;5278;42.656;23.374;2022-10-16T12:02:43;95394.06;;;31.27;21.07
10462;BME280;5278;42.656;23.374;2022-10-16T12:05:23;95399.38;;;31.55;19.63
10462;BME280;5278;42.656;23.374;2022-10-16T12:08:01;95394.13;;;31.22;20.20
10462;BME280;5278;42.656;23.374;2022-10-16T12:10:31;95392.47;;;31.26;22.82
10462;BME280;5278;42.656;23.374;2022-10-16T12:13:04;95368.22;;;31.07;21.23
10462;BME280;5278;42.656;23.374;2022-10-16T12:15:33;95392.69;;;31.05;21.92
10462;BME280;5278;42.656;23.374;2022-10-16T12:18:00;95387.19;;;30.58;20.25
10462;BME280;5278;42.656;23.374;2022-10-16T12:20:29;95390.28;;;30.36;23.17
10462;BME280;5278;42.656;23.374;2022-10-16T12:22:59;95318.59;;;30.08;23.34
10462;BME280;5278;42.656;23.374;2022-10-16T12:25:29;95392.34;;;30.49;22.01
10462;BME280;5278;42.656;23.374;2022-10-16T12:28:03;95392.66;;;30.04;21.56
10462;BME280;5278;42.656;23.374;2022-10-16T12:30:32;95394.53;;;29.24;24.62
10462;BME280;5278;42.656;23.374;2022-10-16T12:33:01;95398.09;;;28.79;23.44
10462;BME280;5278;42.656;23.374;2022-10-16T12:35:31;95396.22;;;28.34;24.92
10462;BME280;5278;42.656;23.374;2022-10-16T12:38:07;95395.03;;;27.89;27.06
10462;BME280;5278;42.656;23.374;2022-10-16T12:40:39;95394.88;;;27.49;27.60
10462;BME280;5278;42.656;23.374;2022-10-16T12:43:34;95398.31;;;26.97;26.88
10462;BME280;5278;42.656;23.374;2022-10-16T12:46:05;95395.09;;;26.58;26.87
10462;BME280;5278;42.656;23.374;2022-10-16T12:48:46;95405.34;;;26.39;29.73
10462;BME280;5278;42.656;23.374;2022-10-16T12:51:22;95401.78;;;26.29;29.38
10462;BME280;5278;42.656;23.374;2022-10-16T12:54:00;95408.59;;;26.20;30.54
10462;BME280;5278;42.656;23.374;2022-10-16T12:56:36;95400.66;;;25.98;30.06
10462;BME280;5278;42.656;23.374;2022-10-16T12:59:14;95409.59;;;25.87;29.18
10462;BME280;5278;42.656;23.374;2022-10-16T13:01:57;95419.78;;;25.51;28.56
10462;BME280;5278;42.656;23.374;2022-10-16T13:04:39;95410.50;;;25.10;30.51
10462;BME280;5278;42.656;23.374;2022-10-16T13:07:25;95418.66;;;25.04;32.39
10462;BME280;5278;42.656;23.374;2022-10-16T13:10:05;95423.47;;;25.07;31.42
10462;BME280;5278;42.656;23.374;2022-10-16T13:12:51;95420.66;;;25.13;32.64
10462;BME280;5278;42.656;23.374;2022-10-16T13:15:32;95418.06;;;25.02;32.04
10462;BME280;5278;42.656;23.374;2022-10-16T13:18:06;95422.13;;;25.04;31.81
10462;BME280;5278;42.656;23.374;2022-10-16T13:21:02;95401.50;;;24.95;31.83
10462;BME280;5278;42.656;23.374;2022-10-16T13:23:36;95414.94;;;24.71;29.54
10462;BME280;5278;42.656;23.374;2022-10-16T13:26:15;95421.59;;;24.24;32.74